CFG78C EDDB-EDDM
Flight info
| Callsign | CFG78C |
|---|---|
| Flight time | 0h 44m |
| Altitude | 28000 |
| Route | LUROS3Z LUROS Y211 BEBKU Z36 MAREM DCT VESUB T106 TUSTO T108 LANDU LANDU2B |
| Aircraft | A20N/M-SDE2E3FGHIRWXY/LB1 |
Departure
| Time | 2026-05-07 19:34 |
|---|---|
| Airport | Berlin Brandenburg Airport (EDDB) |
Arrival
| Time | 2026-05-07 20:18 |
|---|---|
| Airport | Munich Airport (EDDM) |
| Time | Latitude | Longitude | Altitude | Speed | Heading |
|---|---|---|---|---|---|
| 2026-05-07 19:05 | 52.36060 | 13.50803 | 140 ft | 0 kts | 68° |
| 2026-05-07 19:21 | 52.36060 | 13.50801 | 140 ft | 1 kts | 69° |
| 2026-05-07 19:21 | 52.36054 | 13.50778 | 140 ft | 2 kts | 68° |
| 2026-05-07 19:22 | 52.36049 | 13.50755 | 140 ft | 2 kts | 68° |
| 2026-05-07 19:22 | 52.36044 | 13.50732 | 140 ft | 2 kts | 68° |
| 2026-05-07 19:22 | 52.36039 | 13.50709 | 140 ft | 2 kts | 88° |
| 2026-05-07 19:22 | 52.36041 | 13.50684 | 140 ft | 2 kts | 107° |
| 2026-05-07 19:23 | 52.36047 | 13.50662 | 140 ft | 2 kts | 128° |
| 2026-05-07 19:23 | 52.36058 | 13.50646 | 140 ft | 2 kts | 149° |
| 2026-05-07 19:23 | 52.36065 | 13.50640 | 140 ft | 1 kts | 161° |
| 2026-05-07 19:23 | 52.36069 | 13.50638 | 140 ft | 0 kts | 159° |
| 2026-05-07 19:26 | 52.36068 | 13.50639 | 140 ft | 1 kts | 159° |
| 2026-05-07 19:26 | 52.36048 | 13.50651 | 140 ft | 4 kts | 159° |
| 2026-05-07 19:26 | 52.36008 | 13.50675 | 140 ft | 7 kts | 158° |
| 2026-05-07 19:27 | 52.35955 | 13.50709 | 140 ft | 8 kts | 158° |
| 2026-05-07 19:27 | 52.35895 | 13.50700 | 140 ft | 10 kts | 221° |
| 2026-05-07 19:27 | 52.35838 | 13.50632 | 140 ft | 10 kts | 182° |
| 2026-05-07 19:27 | 52.35779 | 13.50619 | 140 ft | 0 kts | 219° |
| 2026-05-07 19:28 | 52.35778 | 13.50617 | 140 ft | 0 kts | 221° |
| 2026-05-07 19:28 | 52.35771 | 13.50604 | 140 ft | 2 kts | 234° |
| 2026-05-07 19:28 | 52.35762 | 13.50573 | 140 ft | 3 kts | 246° |
| 2026-05-07 19:29 | 52.35748 | 13.50518 | 141 ft | 8 kts | 246° |
| 2026-05-07 19:29 | 52.35717 | 13.50390 | 143 ft | 16 kts | 248° |
| 2026-05-07 19:29 | 52.35667 | 13.50180 | 143 ft | 22 kts | 249° |
| 2026-05-07 19:29 | 52.35616 | 13.49961 | 147 ft | 19 kts | 249° |
| 2026-05-07 19:30 | 52.35567 | 13.49754 | 147 ft | 19 kts | 249° |
| 2026-05-07 19:30 | 52.35522 | 13.49561 | 150 ft | 18 kts | 248° |
| 2026-05-07 19:30 | 52.35473 | 13.49357 | 147 ft | 21 kts | 248° |
| 2026-05-07 19:30 | 52.35418 | 13.49129 | 147 ft | 22 kts | 249° |
| 2026-05-07 19:31 | 52.35363 | 13.48892 | 147 ft | 21 kts | 249° |
| 2026-05-07 19:31 | 52.35310 | 13.48665 | 147 ft | 21 kts | 248° |
| 2026-05-07 19:31 | 52.35241 | 13.48479 | 147 ft | 15 kts | 195° |
| 2026-05-07 19:31 | 52.35161 | 13.48514 | 147 ft | 12 kts | 158° |
| 2026-05-07 19:32 | 52.35132 | 13.48538 | 147 ft | 0 kts | 144° |
| 2026-05-07 19:32 | 52.35130 | 13.48541 | 147 ft | 1 kts | 142° |
| 2026-05-07 19:32 | 52.35108 | 13.48589 | 147 ft | 8 kts | 108° |
| 2026-05-07 19:33 | 52.35097 | 13.48692 | 147 ft | 10 kts | 99° |
| 2026-05-07 19:33 | 52.35078 | 13.48987 | 145 ft | 50 kts | 84° |
| 2026-05-07 19:33 | 52.35273 | 13.49910 | 146 ft | 118 kts | 69° |
| 2026-05-07 19:33 | 52.35631 | 13.51442 | 251 ft | 159 kts | 68° |
| 2026-05-07 19:34 | 52.36029 | 13.53146 | 802 ft | 163 kts | 73° |
| 2026-05-07 19:34 | 52.35922 | 13.54891 | 1520 ft | 163 kts | 120° |
| 2026-05-07 19:34 | 52.35061 | 13.56071 | 2162 ft | 170 kts | 143° |
| 2026-05-07 19:34 | 52.34013 | 13.57096 | 2579 ft | 184 kts | 144° |
| 2026-05-07 19:35 | 52.32889 | 13.58273 | 2965 ft | 200 kts | 141° |
| 2026-05-07 19:35 | 52.31723 | 13.59624 | 3451 ft | 212 kts | 137° |
| 2026-05-07 19:35 | 52.30840 | 13.61576 | 3877 ft | 222 kts | 99° |
| 2026-05-07 19:35 | 52.30948 | 13.64007 | 4640 ft | 221 kts | 68° |
| 2026-05-07 19:36 | 52.31494 | 13.66337 | 5433 ft | 225 kts | 70° |
| 2026-05-07 19:36 | 52.32000 | 13.68785 | 6224 ft | 230 kts | 71° |
| 2026-05-07 19:36 | 52.32265 | 13.71360 | 6848 ft | 244 kts | 97° |
| 2026-05-07 19:36 | 52.31545 | 13.73964 | 7319 ft | 266 kts | 133° |
| 2026-05-07 19:37 | 52.29928 | 13.75502 | 7899 ft | 281 kts | 168° |
| 2026-05-07 19:37 | 52.27974 | 13.75796 | 8735 ft | 286 kts | 179° |
| 2026-05-07 19:37 | 52.25990 | 13.75856 | 9597 ft | 289 kts | 179° |
| 2026-05-07 19:37 | 52.23996 | 13.75955 | 10457 ft | 291 kts | 179° |
| 2026-05-07 19:38 | 52.21956 | 13.76119 | 10990 ft | 305 kts | 178° |
| 2026-05-07 19:38 | 52.19770 | 13.76356 | 11419 ft | 323 kts | 176° |
| 2026-05-07 19:38 | 52.17462 | 13.76647 | 11807 ft | 341 kts | 176° |
| 2026-05-07 19:38 | 52.15068 | 13.76976 | 12130 ft | 359 kts | 176° |
| 2026-05-07 19:39 | 52.12523 | 13.77338 | 12469 ft | 375 kts | 175° |
| 2026-05-07 19:39 | 52.09862 | 13.77725 | 12787 ft | 390 kts | 176° |
| 2026-05-07 19:39 | 52.07143 | 13.78123 | 13090 ft | 404 kts | 175° |
| 2026-05-07 19:39 | 52.04312 | 13.78539 | 13629 ft | 410 kts | 175° |
| 2026-05-07 19:40 | 52.01486 | 13.78954 | 14502 ft | 406 kts | 175° |
| 2026-05-07 19:40 | 51.98740 | 13.79359 | 15536 ft | 399 kts | 175° |
| 2026-05-07 19:40 | 51.95968 | 13.79768 | 16296 ft | 399 kts | 175° |
| 2026-05-07 19:40 | 51.93204 | 13.80173 | 16859 ft | 404 kts | 175° |
| 2026-05-07 19:41 | 51.90379 | 13.80585 | 17429 ft | 408 kts | 175° |
| 2026-05-07 19:41 | 51.87567 | 13.80995 | 18008 ft | 412 kts | 175° |
| 2026-05-07 19:41 | 51.84689 | 13.81414 | 18572 ft | 416 kts | 175° |
| 2026-05-07 19:41 | 51.81826 | 13.81831 | 19114 ft | 420 kts | 175° |
| 2026-05-07 19:42 | 51.78917 | 13.82255 | 19629 ft | 424 kts | 175° |
| 2026-05-07 19:42 | 51.75972 | 13.82683 | 20140 ft | 428 kts | 175° |
| 2026-05-07 19:42 | 51.72974 | 13.83119 | 20657 ft | 432 kts | 175° |
| 2026-05-07 19:42 | 51.69999 | 13.83551 | 21054 ft | 438 kts | 175° |
| 2026-05-07 19:43 | 51.66905 | 13.84000 | 21238 ft | 449 kts | 175° |
| 2026-05-07 19:43 | 51.63766 | 13.84454 | 21420 ft | 459 kts | 175° |
| 2026-05-07 19:43 | 51.60540 | 13.84920 | 21653 ft | 467 kts | 175° |
| 2026-05-07 19:43 | 51.57312 | 13.85385 | 22039 ft | 471 kts | 175° |
| 2026-05-07 19:44 | 51.54069 | 13.85852 | 22451 ft | 474 kts | 175° |
| 2026-05-07 19:44 | 51.50776 | 13.86326 | 22848 ft | 477 kts | 175° |
| 2026-05-07 19:44 | 51.47441 | 13.86576 | 23210 ft | 479 kts | 180° |
| 2026-05-07 19:44 | 51.44111 | 13.86373 | 23573 ft | 482 kts | 185° |
| 2026-05-07 19:45 | 51.40818 | 13.85658 | 23894 ft | 484 kts | 192° |
| 2026-05-07 19:45 | 51.37529 | 13.84343 | 24198 ft | 486 kts | 197° |
| 2026-05-07 19:45 | 51.34301 | 13.82840 | 24487 ft | 488 kts | 197° |
| 2026-05-07 19:45 | 51.31036 | 13.81286 | 24798 ft | 490 kts | 198° |
| 2026-05-07 19:46 | 51.27796 | 13.79762 | 25222 ft | 488 kts | 197° |
| 2026-05-07 19:46 | 51.24552 | 13.78265 | 25672 ft | 486 kts | 197° |
| 2026-05-07 19:46 | 51.21328 | 13.76798 | 26084 ft | 485 kts | 197° |
| 2026-05-07 19:46 | 51.18083 | 13.75335 | 26502 ft | 483 kts | 197° |
| 2026-05-07 19:47 | 51.14869 | 13.73896 | 26898 ft | 482 kts | 197° |
| 2026-05-07 19:47 | 51.12825 | 13.72985 | 27148 ft | 482 kts | 197° |
| 2026-05-07 19:47 | 51.09619 | 13.71559 | 27539 ft | 480 kts | 197° |
| 2026-05-07 19:47 | 51.06410 | 13.70134 | 27876 ft | 481 kts | 197° |
| 2026-05-07 19:48 | 51.03193 | 13.68708 | 28063 ft | 482 kts | 197° |
| 2026-05-07 19:48 | 50.99971 | 13.67282 | 28073 ft | 483 kts | 197° |
| 2026-05-07 19:48 | 50.93493 | 13.64424 | 28062 ft | 483 kts | 197° |
| 2026-05-07 19:49 | 50.87023 | 13.61575 | 28049 ft | 484 kts | 197° |
| 2026-05-07 19:49 | 50.80588 | 13.58754 | 28047 ft | 483 kts | 197° |
| 2026-05-07 19:50 | 50.74128 | 13.55927 | 28038 ft | 483 kts | 197° |
| 2026-05-07 19:50 | 50.67663 | 13.53105 | 28042 ft | 483 kts | 197° |
| 2026-05-07 19:51 | 50.61230 | 13.50308 | 28051 ft | 483 kts | 197° |
| 2026-05-07 19:51 | 50.54774 | 13.47507 | 28050 ft | 482 kts | 198° |
| 2026-05-07 19:52 | 50.48307 | 13.44708 | 28052 ft | 482 kts | 198° |
| 2026-05-07 19:52 | 50.41862 | 13.41928 | 28055 ft | 481 kts | 198° |
| 2026-05-07 19:53 | 50.35413 | 13.39154 | 28043 ft | 481 kts | 198° |
| 2026-05-07 19:53 | 50.29027 | 13.36278 | 28043 ft | 479 kts | 202° |
| 2026-05-07 19:54 | 50.22899 | 13.32224 | 28043 ft | 476 kts | 206° |
| 2026-05-07 19:54 | 50.16868 | 13.28055 | 28043 ft | 476 kts | 206° |
| 2026-05-07 19:55 | 50.10825 | 13.23983 | 28044 ft | 475 kts | 205° |
| 2026-05-07 19:55 | 50.04768 | 13.19963 | 28048 ft | 475 kts | 205° |
| 2026-05-07 19:56 | 49.98673 | 13.15948 | 28039 ft | 475 kts | 205° |
| 2026-05-07 19:56 | 49.92600 | 13.11965 | 28039 ft | 474 kts | 205° |
| 2026-05-07 19:57 | 49.86479 | 13.07961 | 28041 ft | 474 kts | 205° |
| 2026-05-07 19:57 | 49.80401 | 13.03997 | 28042 ft | 473 kts | 205° |
| 2026-05-07 19:58 | 49.74344 | 13.00059 | 28043 ft | 474 kts | 205° |
| 2026-05-07 19:58 | 49.68267 | 12.96120 | 28050 ft | 473 kts | 205° |
| 2026-05-07 19:59 | 49.62209 | 12.92201 | 28040 ft | 472 kts | 205° |
| 2026-05-07 19:59 | 49.59214 | 12.90270 | 27800 ft | 466 kts | 205° |
| 2026-05-07 19:59 | 49.56232 | 12.88349 | 27033 ft | 464 kts | 205° |
| 2026-05-07 20:00 | 49.53258 | 12.86434 | 26091 ft | 464 kts | 205° |
| 2026-05-07 20:00 | 49.50321 | 12.84544 | 25085 ft | 465 kts | 205° |
| 2026-05-07 20:00 | 49.47324 | 12.82618 | 23953 ft | 467 kts | 205° |
| 2026-05-07 20:00 | 49.44320 | 12.80690 | 22842 ft | 470 kts | 205° |
| 2026-05-07 20:01 | 49.41325 | 12.78772 | 22143 ft | 462 kts | 205° |
| 2026-05-07 20:01 | 49.38402 | 12.76907 | 21504 ft | 455 kts | 205° |
| 2026-05-07 20:01 | 49.35503 | 12.75057 | 20783 ft | 449 kts | 205° |
| 2026-05-07 20:01 | 49.32654 | 12.73242 | 20072 ft | 444 kts | 205° |
| 2026-05-07 20:02 | 49.29817 | 12.71435 | 19354 ft | 440 kts | 205° |
| 2026-05-07 20:02 | 49.27009 | 12.69648 | 18628 ft | 435 kts | 205° |
| 2026-05-07 20:02 | 49.24239 | 12.67887 | 17922 ft | 430 kts | 205° |
| 2026-05-07 20:02 | 49.21499 | 12.66147 | 17227 ft | 426 kts | 205° |
| 2026-05-07 20:03 | 49.18798 | 12.64434 | 16535 ft | 422 kts | 205° |
| 2026-05-07 20:03 | 49.16099 | 12.62725 | 15835 ft | 418 kts | 205° |
| 2026-05-07 20:03 | 49.13418 | 12.61029 | 15158 ft | 413 kts | 205° |
| 2026-05-07 20:03 | 49.10800 | 12.59374 | 14492 ft | 409 kts | 205° |
| 2026-05-07 20:04 | 49.08211 | 12.57740 | 13814 ft | 405 kts | 205° |
| 2026-05-07 20:04 | 49.05603 | 12.56097 | 13133 ft | 401 kts | 205° |
| 2026-05-07 20:04 | 49.03033 | 12.54479 | 12474 ft | 397 kts | 205° |
| 2026-05-07 20:04 | 49.00516 | 12.52896 | 11818 ft | 393 kts | 205° |
| 2026-05-07 20:05 | 48.98001 | 12.51316 | 11274 ft | 387 kts | 205° |
| 2026-05-07 20:05 | 48.95520 | 12.49758 | 11057 ft | 388 kts | 205° |
| 2026-05-07 20:05 | 48.93000 | 12.48177 | 11048 ft | 389 kts | 205° |
| 2026-05-07 20:05 | 48.90535 | 12.46633 | 11040 ft | 378 kts | 205° |
| 2026-05-07 20:06 | 48.88180 | 12.45165 | 11043 ft | 358 kts | 205° |
| 2026-05-07 20:06 | 48.85921 | 12.43758 | 11047 ft | 338 kts | 205° |
| 2026-05-07 20:06 | 48.83802 | 12.42437 | 11043 ft | 320 kts | 206° |
| 2026-05-07 20:06 | 48.81809 | 12.41194 | 10958 ft | 306 kts | 206° |
| 2026-05-07 20:07 | 48.79853 | 12.39973 | 10800 ft | 295 kts | 206° |
| 2026-05-07 20:07 | 48.78003 | 12.38819 | 10650 ft | 285 kts | 206° |
| 2026-05-07 20:07 | 48.76201 | 12.37696 | 10501 ft | 276 kts | 206° |
| 2026-05-07 20:07 | 48.74432 | 12.36594 | 10364 ft | 269 kts | 206° |
| 2026-05-07 20:08 | 48.72732 | 12.35536 | 10240 ft | 265 kts | 206° |
| 2026-05-07 20:08 | 48.70884 | 12.34386 | 10119 ft | 263 kts | 206° |
| 2026-05-07 20:08 | 48.69199 | 12.33337 | 9861 ft | 265 kts | 206° |
| 2026-05-07 20:08 | 48.67497 | 12.32279 | 9521 ft | 266 kts | 205° |
| 2026-05-07 20:09 | 48.65794 | 12.31223 | 9192 ft | 266 kts | 205° |
| 2026-05-07 20:09 | 48.64070 | 12.30155 | 8861 ft | 266 kts | 205° |
| 2026-05-07 20:09 | 48.62373 | 12.29105 | 8540 ft | 265 kts | 205° |
| 2026-05-07 20:10 | 48.59021 | 12.26868 | 7897 ft | 262 kts | 210° |
| 2026-05-07 20:10 | 48.57438 | 12.25525 | 7575 ft | 261 kts | 212° |
| 2026-05-07 20:10 | 48.55855 | 12.24155 | 7254 ft | 259 kts | 212° |
| 2026-05-07 20:10 | 48.54299 | 12.22807 | 6937 ft | 258 kts | 212° |
| 2026-05-07 20:11 | 48.52745 | 12.21462 | 6621 ft | 257 kts | 212° |
| 2026-05-07 20:11 | 48.51201 | 12.20130 | 6308 ft | 256 kts | 212° |
| 2026-05-07 20:11 | 48.49661 | 12.18802 | 5994 ft | 254 kts | 211° |
| 2026-05-07 20:11 | 48.48144 | 12.17495 | 5683 ft | 252 kts | 211° |
| 2026-05-07 20:12 | 48.46617 | 12.16180 | 5365 ft | 250 kts | 211° |
| 2026-05-07 20:12 | 48.45139 | 12.14908 | 5208 ft | 241 kts | 211° |
| 2026-05-07 20:12 | 48.43720 | 12.13692 | 5190 ft | 227 kts | 211° |
| 2026-05-07 20:12 | 48.42359 | 12.12524 | 5152 ft | 228 kts | 211° |
| 2026-05-07 20:13 | 48.40971 | 12.11331 | 5047 ft | 227 kts | 211° |
| 2026-05-07 20:13 | 48.39620 | 12.10126 | 5004 ft | 227 kts | 220° |
| 2026-05-07 20:13 | 48.38679 | 12.08266 | 4836 ft | 223 kts | 251° |
| 2026-05-07 20:13 | 48.38369 | 12.05998 | 4551 ft | 221 kts | 266° |
| 2026-05-07 20:14 | 48.38286 | 12.03738 | 4348 ft | 211 kts | 268° |
| 2026-05-07 20:14 | 48.38191 | 12.01619 | 4045 ft | 200 kts | 266° |
| 2026-05-07 20:14 | 48.38056 | 11.99575 | 3742 ft | 190 kts | 265° |
| 2026-05-07 20:14 | 48.37908 | 11.97662 | 3465 ft | 179 kts | 264° |
| 2026-05-07 20:15 | 48.37764 | 11.95867 | 3215 ft | 169 kts | 264° |
| 2026-05-07 20:15 | 48.37627 | 11.94175 | 3028 ft | 156 kts | 265° |
| 2026-05-07 20:15 | 48.37503 | 11.92615 | 2809 ft | 145 kts | 265° |
| 2026-05-07 20:15 | 48.37389 | 11.91155 | 2621 ft | 140 kts | 265° |
| 2026-05-07 20:16 | 48.37274 | 11.89685 | 2449 ft | 141 kts | 265° |
| 2026-05-07 20:16 | 48.37161 | 11.88220 | 2268 ft | 142 kts | 265° |
| 2026-05-07 20:16 | 48.37046 | 11.86758 | 2081 ft | 142 kts | 265° |
| 2026-05-07 20:16 | 48.36932 | 11.85288 | 1889 ft | 141 kts | 265° |
| 2026-05-07 20:17 | 48.36818 | 11.83808 | 1697 ft | 141 kts | 265° |
| 2026-05-07 20:17 | 48.36705 | 11.82355 | 1512 ft | 141 kts | 265° |
| 2026-05-07 20:17 | 48.36606 | 11.80962 | 1446 ft | 116 kts | 264° |
| 2026-05-07 20:17 | 48.36529 | 11.80024 | 1449 ft | 53 kts | 261° |
| 2026-05-07 20:18 | 48.36417 | 11.79635 | 1454 ft | 23 kts | 234° |
| 2026-05-07 20:18 | 48.36330 | 11.79456 | 1456 ft | 13 kts | 233° |
| 2026-05-07 20:18 | 48.36277 | 11.79348 | 1459 ft | 12 kts | 233° |
| 2026-05-07 20:18 | 48.36224 | 11.79238 | 1459 ft | 13 kts | 234° |
| 2026-05-07 20:19 | 48.36181 | 11.79040 | 1462 ft | 25 kts | 263° |
| 2026-05-07 20:19 | 48.36161 | 11.78773 | 1462 ft | 26 kts | 264° |
| 2026-05-07 20:19 | 48.36139 | 11.78492 | 1463 ft | 27 kts | 262° |
| 2026-05-07 20:19 | 48.36115 | 11.78201 | 1460 ft | 29 kts | 265° |
| 2026-05-07 20:20 | 48.36087 | 11.77888 | 1459 ft | 30 kts | 263° |
| 2026-05-07 20:20 | 48.36077 | 11.77757 | 1459 ft | 0 kts | 265° |
| 2026-05-07 20:20 | 48.36042 | 11.77656 | 1459 ft | 16 kts | 186° |
| 2026-05-07 20:20 | 48.35928 | 11.77686 | 1459 ft | 17 kts | 172° |
| 2026-05-07 20:21 | 48.35801 | 11.77708 | 1459 ft | 18 kts | 173° |
| 2026-05-07 20:21 | 48.35671 | 11.77728 | 1462 ft | 18 kts | 174° |
| 2026-05-07 20:21 | 48.35541 | 11.77751 | 1464 ft | 19 kts | 173° |
| 2026-05-07 20:21 | 48.35408 | 11.77774 | 1467 ft | 19 kts | 174° |
| 2026-05-07 20:22 | 48.35334 | 11.77895 | 1468 ft | 18 kts | 83° |
| 2026-05-07 20:22 | 48.35352 | 11.78092 | 1468 ft | 18 kts | 93° |
| 2026-05-07 20:22 | 48.35255 | 11.78179 | 1469 ft | 17 kts | 173° |
| 2026-05-07 20:22 | 48.35133 | 11.78199 | 1469 ft | 17 kts | 173° |
| 2026-05-07 20:23 | 48.35082 | 11.78271 | 1471 ft | 9 kts | 81° |
| 2026-05-07 20:23 | 48.35086 | 11.78305 | 1472 ft | 0 kts | 82° |
| 2026-05-07 20:23 | 48.35086 | 11.78310 | 1473 ft | 1 kts | 83° |
| 2026-05-07 20:23 | 48.35088 | 11.78340 | 1474 ft | 3 kts | 83° |
| 2026-05-07 20:24 | 48.35090 | 11.78353 | 1474 ft | 0 kts | 83° |